Time;durP1;ratioP1;P1;durP2;ratioP2;P2;SDS_P1;SDS_P2;PMS_P1;PMS_P2;Temp;Humidity;BMP_temperature;BMP_pressure;BME280_temperature;BME280_humidity;BME280_pressure;Samples;Min_cycle;Max_cycle;Signal;HPM_P1;HPM_P2
2023/03/16 00:02:05;;;;;;;8.52;2.30;;;3.70;99.90;;;;;;5051815;28;20079;-76
2023/03/16 00:04:36;;;;;;;4.10;1.80;;;3.70;99.90;;;;;;5051334;28;20095;-76
2023/03/16 00:07:11;;;;;;;4.13;1.80;;;3.90;99.90;;;;;;5051072;28;20489;-76
2023/03/16 00:09:39;;;;;;;4.32;1.67;;;3.70;99.90;;;;;;5052036;28;20111;-76
2023/03/16 00:12:14;;;;;;;3.40;1.67;;;3.60;99.90;;;;;;5033590;28;20083;-76
2023/03/16 00:14:45;;;;;;;4.93;2.15;;;3.60;99.90;;;;;;5051096;28;20076;-76
2023/03/16 00:17:17;;;;;;;3.25;2.05;;;3.60;99.90;;;;;;5033206;28;20549;-76
2023/03/16 00:19:53;;;;;;;6.00;2.90;;;3.60;99.90;;;;;;5051345;28;20076;-77
2023/03/16 00:22:21;;;;;;;6.13;2.10;;;3.60;99.90;;;;;;5051368;28;20053;-76
2023/03/16 00:24:47;;;;;;;3.90;2.15;;;3.60;99.90;;;;;;5033181;28;20041;-76
2023/03/16 00:27:14;;;;;;;4.88;2.10;;;3.60;99.90;;;;;;5051581;28;20045;-76
2023/03/16 00:29:45;;;;;;;4.07;2.25;;;3.60;99.90;;;;;;5051188;28;20114;-76
2023/03/16 00:32:13;;;;;;;4.50;2.05;;;3.80;99.90;;;;;;5044251;28;20516;-77
2023/03/16 00:34:39;;;;;;;3.20;2.08;;;3.60;99.90;;;;;;5063742;28;20052;-77
2023/03/16 00:37:05;;;;;;;5.78;2.28;;;3.60;99.90;;;;;;5045143;28;20056;-76
2023/03/16 00:39:34;;;;;;;5.32;2.47;;;3.60;99.90;;;;;;5050652;28;20037;-76
2023/03/16 00:42:00;;;;;;;6.63;3.00;;;3.60;99.90;;;;;;5033779;28;20068;-76
2023/03/16 00:44:26;;;;;;;3.42;2.08;;;3.50;99.90;;;;;;5033071;28;20051;-76
2023/03/16 00:46:52;;;;;;;3.63;2.28;;;3.50;99.90;;;;;;5046885;28;20137;-76
2023/03/16 00:49:17;;;;;;;4.25;2.47;;;3.50;99.90;;;;;;5035202;28;20087;-76
2023/03/16 00:51:45;;;;;;;4.32;2.35;;;3.90;99.90;;;;;;5053351;28;20040;-78
2023/03/16 00:54:11;;;;;;;5.88;2.58;;;3.60;99.90;;;;;;5053168;28;20058;-76
2023/03/16 00:56:37;;;;;;;6.57;2.58;;;3.50;99.90;;;;;;5036937;28;20100;-77
2023/03/16 00:59:04;;;;;;;4.32;2.17;;;3.70;99.90;;;;;;5069491;28;20083;-76
2023/03/16 01:01:31;;;;;;;4.57;2.10;;;3.90;99.90;;;;;;5048561;28;20062;-76
2023/03/16 01:03:58;;;;;;;4.53;2.33;;;3.70;99.90;;;;;;5016637;28;20092;-76
2023/03/16 01:06:25;;;;;;;5.05;2.38;;;3.80;99.90;;;;;;5033085;28;20060;-77
2023/03/16 01:08:51;;;;;;;4.85;2.00;;;3.50;99.90;;;;;;5050873;28;20048;-76
2023/03/16 01:11:20;;;;;;;5.07;2.10;;;3.60;99.90;;;;;;5050668;28;20106;-76
2023/03/16 01:13:47;;;;;;;3.95;2.00;;;3.70;99.90;;;;;;5032990;28;20109;-76
2023/03/16 01:16:14;;;;;;;6.22;2.45;;;3.70;99.90;;;;;;5032394;28;20036;-76
2023/03/16 01:18:40;;;;;;;3.33;1.90;;;3.80;99.90;;;;;;5032143;28;20036;-76
2023/03/16 01:21:07;;;;;;;3.45;1.83;;;3.70;99.90;;;;;;5033026;28;20745;-76
2023/03/16 01:23:37;;;;;;;4.05;2.33;;;3.60;99.90;;;;;;5032752;28;20133;-76
2023/03/16 01:26:03;;;;;;;4.10;2.05;;;3.60;99.90;;;;;;5031900;28;20087;-76
2023/03/16 01:28:30;;;;;;;4.03;2.00;;;3.50;99.90;;;;;;5016323;28;20172;-76
2023/03/16 01:31:04;;;;;;;3.47;1.80;;;4.10;99.90;;;;;;5050180;28;20046;-76
2023/03/16 01:33:29;;;;;;;4.75;1.90;;;3.60;99.90;;;;;;5032576;28;20040;-76
2023/03/16 01:36:07;;;;;;;4.20;1.70;;;3.50;99.90;;;;;;5050432;28;20474;-76
2023/03/16 01:38:33;;;;;;;5.10;2.55;;;3.50;99.90;;;;;;5044969;28;20474;-76
2023/03/16 01:41:00;;;;;;;4.38;2.28;;;3.50;99.90;;;;;;5036073;28;20049;-76
2023/03/16 01:43:28;;;;;;;2.72;1.85;;;3.60;99.90;;;;;;5070560;28;20055;-76
2023/03/16 01:46:06;;;;;;;4.13;1.70;;;3.50;99.90;;;;;;5066428;28;20490;-76
2023/03/16 01:48:42;;;;;;;3.97;1.83;;;3.50;99.90;;;;;;5056658;28;20135;-75
2023/03/16 01:51:43;;;;;;;4.10;2.42;;;3.50;99.90;;;;;;5070572;28;20044;-76
2023/03/16 01:54:26;;;;;;;4.03;1.80;;;3.50;99.90;;;;;;5019058;28;20053;-76
2023/03/16 01:57:21;;;;;;;3.85;2.13;;;3.40;99.90;;;;;;5070534;28;20044;-77
2023/03/16 01:59:57;;;;;;;4.90;1.80;;;3.40;99.90;;;;;;5059736;28;20491;-76
2023/03/16 02:02:28;;;;;;;3.15;1.98;;;3.40;99.90;;;;;;5048851;28;20041;-76
2023/03/16 02:05:14;;;;;;;3.70;2.17;;;3.40;99.90;;;;;;5050216;28;20102;-77
2023/03/16 02:07:45;;;;;;;4.05;2.40;;;3.40;99.90;;;;;;5041399;28;20049;-77
2023/03/16 02:10:14;;;;;;;4.95;2.42;;;3.40;99.90;;;;;;5049927;28;20505;-77
2023/03/16 02:12:40;;;;;;;4.90;2.25;;;3.40;99.90;;;;;;5062035;28;20121;-76
2023/03/16 02:15:06;;;;;;;5.18;2.10;;;3.40;99.90;;;;;;5070177;28;20481;-76
2023/03/16 02:17:34;;;;;;;4.22;2.38;;;3.40;99.90;;;;;;5029030;28;20050;-76
2023/03/16 02:20:15;;;;;;;3.15;2.20;;;3.80;99.90;;;;;;5069387;28;20044;-76
2023/03/16 02:22:46;;;;;;;5.45;2.10;;;3.40;99.90;;;;;;5052196;28;20075;-75
2023/03/16 02:25:15;;;;;;;5.30;2.20;;;3.50;99.90;;;;;;5032560;28;20053;-76
2023/03/16 02:28:06;;;;;;;4.50;2.67;;;3.40;99.90;;;;;;5054163;28;20051;-75
2023/03/16 02:30:33;;;;;;;4.18;2.20;;;3.40;99.90;;;;;;5021861;28;20143;-76
2023/03/16 02:32:59;;;;;;;4.75;2.45;;;3.70;99.90;;;;;;5039584;28;20048;-76
2023/03/16 02:35:24;;;;;;;3.88;2.08;;;3.40;99.90;;;;;;5073132;28;20567;-76
2023/03/16 02:37:51;;;;;;;4.00;1.95;;;3.40;99.90;;;;;;5066649;28;20137;-76
2023/03/16 02:40:24;;;;;;;3.58;2.20;;;3.80;99.90;;;;;;5052645;28;20551;-76
2023/03/16 02:43:01;;;;;;;5.07;2.42;;;3.40;99.90;;;;;;5036200;28;20053;-77
2023/03/16 02:45:32;;;;;;;5.68;2.70;;;3.40;99.90;;;;;;5035278;28;20056;-76
2023/03/16 02:48:02;;;;;;;4.32;2.30;;;3.50;99.90;;;;;;5068800;28;20408;-76
2023/03/16 02:50:28;;;;;;;3.78;2.13;;;3.40;99.90;;;;;;5069349;28;20095;-76
2023/03/16 02:52:54;;;;;;;3.83;2.00;;;3.50;99.90;;;;;;5072349;28;20048;-76
2023/03/16 02:55:20;;;;;;;4.13;2.30;;;3.50;99.90;;;;;;5073125;28;20097;-75
2023/03/16 02:57:46;;;;;;;2.72;2.00;;;3.40;99.90;;;;;;5046145;28;20102;-76
2023/03/16 03:00:17;;;;;;;4.18;2.50;;;3.40;99.90;;;;;;5046486;28;20041;-75
2023/03/16 03:02:44;;;;;;;3.92;2.10;;;3.50;99.90;;;;;;5073085;28;20053;-77
2023/03/16 03:05:10;;;;;;;3.88;2.30;;;3.60;99.90;;;;;;5011707;28;20047;-75
2023/03/16 03:07:36;;;;;;;3.92;2.25;;;3.50;99.90;;;;;;5073320;28;20041;-75
2023/03/16 03:10:03;;;;;;;2.90;1.92;;;3.50;99.90;;;;;;5072853;28;20393;-76
2023/03/16 03:12:28;;;;;;;5.10;2.35;;;3.50;99.90;;;;;;5046490;28;20052;-76
2023/03/16 03:14:56;;;;;;;6.38;2.20;;;3.50;99.90;;;;;;5069802;28;20056;-76
2023/03/16 03:17:28;;;;;;;5.22;2.28;;;3.50;99.90;;;;;;5055106;28;20399;-75
2023/03/16 03:19:58;;;;;;;4.03;1.88;;;3.60;99.90;;;;;;5055649;28;20056;-76
2023/03/16 03:22:25;;;;;;;3.88;2.38;;;3.50;99.90;;;;;;5038348;28;20111;-77
2023/03/16 03:24:52;;;;;;;4.22;2.20;;;3.60;99.90;;;;;;5038079;28;20090;-74
2023/03/16 03:27:18;;;;;;;5.03;2.10;;;3.50;99.90;;;;;;5072484;28;20051;-76
2023/03/16 03:29:44;;;;;;;3.65;2.10;;;3.80;99.90;;;;;;5054848;28;20076;-75
2023/03/16 03:32:10;;;;;;;4.88;2.40;;;3.60;99.90;;;;;;5049205;28;20080;-77
2023/03/16 03:34:36;;;;;;;4.80;2.42;;;3.60;99.90;;;;;;5057323;28;20051;-75
2023/03/16 03:37:02;;;;;;;6.07;2.35;;;3.80;99.90;;;;;;5061482;28;20055;-77
2023/03/16 03:39:28;;;;;;;3.47;2.30;;;3.70;99.90;;;;;;5033775;28;20045;-75
2023/03/16 03:41:54;;;;;;;5.32;2.20;;;3.70;99.90;;;;;;5052086;28;20056;-76
2023/03/16 03:44:21;;;;;;;3.95;2.00;;;3.60;99.90;;;;;;5034796;28;20040;-76
2023/03/16 03:46:47;;;;;;;5.30;2.28;;;3.70;99.90;;;;;;5058538;28;20055;-77
2023/03/16 03:49:13;;;;;;;3.95;1.90;;;3.50;99.90;;;;;;5071326;28;20052;-76
2023/03/16 03:51:40;;;;;;;4.05;2.60;;;3.60;99.90;;;;;;5054003;28;20052;-76
2023/03/16 03:54:06;;;;;;;5.63;2.40;;;3.70;99.90;;;;;;5054319;28;20106;-75
2023/03/16 03:56:32;;;;;;;6.97;2.38;;;3.50;99.90;;;;;;5054588;28;20051;-76
2023/03/16 03:58:58;;;;;;;6.22;2.65;;;3.50;99.90;;;;;;5071980;28;20041;-76
2023/03/16 04:01:24;;;;;;;3.67;2.38;;;3.50;99.90;;;;;;5071624;28;20044;-76
2023/03/16 04:03:50;;;;;;;4.88;2.50;;;3.50;99.90;;;;;;5054233;28;20063;-76
2023/03/16 04:06:15;;;;;;;6.00;2.40;;;3.50;99.90;;;;;;5054007;28;20048;-76
2023/03/16 04:08:41;;;;;;;4.72;2.20;;;3.50;99.90;;;;;;5067432;28;20132;-76
2023/03/16 04:11:07;;;;;;;4.13;2.45;;;3.50;99.90;;;;;;5071944;28;20124;-76
2023/03/16 04:13:33;;;;;;;6.32;2.58;;;3.80;99.90;;;;;;5071761;28;20044;-76
2023/03/16 04:16:02;;;;;;;4.72;2.42;;;3.50;99.90;;;;;;5071621;28;20075;-76
2023/03/16 04:18:29;;;;;;;5.13;2.47;;;3.50;99.90;;;;;;5071425;28;20040;-77
2023/03/16 04:20:54;;;;;;;5.00;2.63;;;3.70;99.90;;;;;;5037521;28;20461;-76
2023/03/16 04:23:20;;;;;;;3.70;2.30;;;3.60;99.90;;;;;;5037430;28;20052;-76
2023/03/16 04:25:46;;;;;;;3.92;2.70;;;3.60;99.90;;;;;;5053970;28;20053;-75
2023/03/16 04:28:12;;;;;;;3.33;2.15;;;3.50;99.90;;;;;;5018861;28;20045;-76
2023/03/16 04:30:38;;;;;;;3.88;2.42;;;3.60;99.90;;;;;;5031317;28;20124;-77
2023/03/16 04:33:04;;;;;;;6.60;2.80;;;3.60;99.90;;;;;;5049581;28;20148;-76
2023/03/16 04:35:30;;;;;;;6.32;2.90;;;3.70;99.90;;;;;;5049484;28;20505;-77
2023/03/16 04:37:57;;;;;;;4.13;2.95;;;3.70;99.90;;;;;;5040528;28;20048;-76
2023/03/16 04:40:23;;;;;;;3.42;2.40;;;3.60;99.90;;;;;;5071267;28;20043;-76
2023/03/16 04:42:48;;;;;;;4.22;2.67;;;3.60;99.90;;;;;;5071081;28;20045;-76
2023/03/16 04:45:16;;;;;;;4.28;2.45;;;3.70;99.90;;;;;;5071659;28;20055;-76
2023/03/16 04:47:42;;;;;;;4.15;2.47;;;3.60;99.90;;;;;;5069145;28;20052;-77
2023/03/16 04:50:09;;;;;;;4.70;2.60;;;3.70;99.90;;;;;;5070443;28;20053;-75
2023/03/16 04:52:35;;;;;;;4.40;2.20;;;3.60;99.90;;;;;;5053328;28;20041;-75
2023/03/16 04:55:01;;;;;;;4.15;2.42;;;3.70;99.90;;;;;;5064408;28;20041;-76
2023/03/16 04:57:27;;;;;;;3.60;2.83;;;3.60;99.90;;;;;;5069579;28;20067;-76
2023/03/16 04:59:52;;;;;;;4.38;2.53;;;3.60;99.90;;;;;;5053316;28;20076;-76
2023/03/16 05:02:18;;;;;;;4.32;2.70;;;3.70;99.90;;;;;;5052978;28;20123;-76
2023/03/16 05:04:44;;;;;;;4.80;2.50;;;3.70;99.90;;;;;;5053489;28;20170;-77
2023/03/16 05:07:10;;;;;;;3.75;2.40;;;3.60;99.90;;;;;;5071016;28;20132;-76
2023/03/16 05:09:36;;;;;;;4.38;2.67;;;3.60;99.90;;;;;;5052945;28;20101;-77
2023/03/16 05:12:01;;;;;;;3.88;2.60;;;3.60;99.90;;;;;;5071181;28;20045;-76
2023/03/16 05:14:27;;;;;;;5.72;3.17;;;3.60;99.90;;;;;;5053936;28;20049;-75
2023/03/16 05:16:53;;;;;;;5.68;2.85;;;3.80;99.90;;;;;;5054023;28;20115;-76
2023/03/16 05:19:18;;;;;;;3.60;2.40;;;3.70;99.90;;;;;;5052294;28;20067;-77
2023/03/16 05:21:44;;;;;;;5.80;2.70;;;3.70;99.90;;;;;;5052911;28;20359;-77
2023/03/16 05:24:11;;;;;;;4.75;2.75;;;3.70;99.90;;;;;;5025486;28;20062;-76
2023/03/16 05:26:37;;;;;;;5.57;2.63;;;3.70;99.90;;;;;;5048706;28;20044;-76
2023/03/16 05:29:03;;;;;;;4.72;2.88;;;3.70;99.90;;;;;;5043044;28;20076;-76
2023/03/16 05:31:31;;;;;;;4.18;2.47;;;3.60;99.90;;;;;;5053155;28;20036;-76
2023/03/16 05:33:57;;;;;;;5.35;2.72;;;3.60;99.90;;;;;;5070515;28;20056;-76
2023/03/16 05:36:23;;;;;;;4.10;2.55;;;3.90;99.90;;;;;;5052878;28;20044;-75
2023/03/16 05:38:50;;;;;;;6.05;3.10;;;3.70;99.90;;;;;;5069695;28;20043;-76
2023/03/16 05:41:17;;;;;;;3.92;2.72;;;3.70;99.90;;;;;;5070691;28;20075;-76
2023/03/16 05:43:43;;;;;;;6.00;2.30;;;3.60;99.90;;;;;;5048088;28;20090;-76
2023/03/16 05:46:09;;;;;;;3.63;2.78;;;3.60;99.90;;;;;;5031687;28;20128;-77
2023/03/16 05:48:35;;;;;;;3.92;2.20;;;3.60;99.90;;;;;;5051367;28;20132;-76
2023/03/16 05:51:04;;;;;;;6.70;2.92;;;3.60;99.90;;;;;;5052285;28;20044;-76
2023/03/16 05:53:31;;;;;;;6.28;2.60;;;3.60;99.90;;;;;;5069422;28;20044;-77
2023/03/16 05:55:56;;;;;;;3.85;3.03;;;3.60;99.90;;;;;;5052338;28;20099;-76
2023/03/16 05:58:22;;;;;;;4.70;3.22;;;3.70;99.90;;;;;;5070628;28;20106;-76
2023/03/16 06:00:49;;;;;;;4.65;2.90;;;3.90;99.90;;;;;;5070028;28;20044;-78
2023/03/16 06:03:16;;;;;;;4.47;2.90;;;3.70;99.90;;;;;;5073463;28;20123;-77
2023/03/16 06:05:41;;;;;;;3.75;2.67;;;3.70;99.90;;;;;;5056097;28;20056;-77
2023/03/16 06:08:08;;;;;;;4.95;2.42;;;3.90;99.90;;;;;;5074027;28;20121;-78
2023/03/16 06:10:34;;;;;;;5.18;2.50;;;3.70;99.90;;;;;;5056022;28;20044;-77
2023/03/16 06:13:00;;;;;;;3.58;2.40;;;3.70;99.90;;;;;;5056549;28;20408;-77
2023/03/16 06:15:29;;;;;;;4.68;2.58;;;3.70;99.90;;;;;;5040009;28;20044;-77
2023/03/16 06:17:55;;;;;;;4.45;2.40;;;4.10;99.90;;;;;;5018646;28;20053;-77
2023/03/16 06:20:21;;;;;;;4.95;2.33;;;3.90;99.90;;;;;;5016687;28;20057;-77
2023/03/16 06:22:47;;;;;;;3.88;2.05;;;3.80;99.90;;;;;;5073564;28;20048;-77
2023/03/16 06:25:13;;;;;;;4.60;2.63;;;3.90;99.90;;;;;;5029010;28;20054;-77
2023/03/16 06:27:39;;;;;;;5.45;2.35;;;4.00;99.90;;;;;;5031159;28;20417;-77
2023/03/16 06:30:07;;;;;;;6.13;2.58;;;3.80;99.90;;;;;;5035846;28;20516;-78
2023/03/16 06:32:34;;;;;;;5.15;2.50;;;3.80;99.90;;;;;;5036084;28;20102;-77
2023/03/16 06:35:02;;;;;;;5.40;2.60;;;3.80;99.90;;;;;;5069570;28;20048;-78
2023/03/16 06:37:28;;;;;;;6.65;3.10;;;4.20;99.90;;;;;;5039326;28;20052;-78
2023/03/16 06:39:54;;;;;;;3.80;2.20;;;3.80;99.90;;;;;;5001513;28;20049;-78
2023/03/16 06:42:20;;;;;;;4.43;2.42;;;4.20;99.90;;;;;;5015997;28;20056;-77
2023/03/16 06:44:46;;;;;;;4.38;2.10;;;4.10;99.90;;;;;;5017454;28;20497;-78
2023/03/16 06:47:12;;;;;;;3.47;2.30;;;3.90;99.90;;;;;;5063510;28;20053;-77
2023/03/16 06:49:38;;;;;;;5.72;2.65;;;3.90;99.90;;;;;;5018474;28;20068;-77
2023/03/16 06:52:03;;;;;;;4.35;2.20;;;4.00;99.90;;;;;;5052505;28;20049;-77
2023/03/16 06:54:31;;;;;;;4.78;2.60;;;4.00;99.90;;;;;;5035591;28;20055;-77
2023/03/16 06:56:57;;;;;;;5.13;2.30;;;4.00;99.90;;;;;;5035474;28;20110;-77
2023/03/16 06:59:22;;;;;;;4.53;2.60;;;4.30;99.90;;;;;;5053284;28;20440;-77
2023/03/16 07:01:49;;;;;;;7.72;2.58;;;4.00;99.90;;;;;;5019200;28;20060;-77
2023/03/16 07:04:15;;;;;;;4.85;2.53;;;4.30;99.90;;;;;;5035579;28;20057;-77
2023/03/16 07:06:40;;;;;;;3.75;2.80;;;4.10;99.90;;;;;;5053116;28;20107;-77
2023/03/16 07:09:06;;;;;;;4.03;2.28;;;4.10;99.90;;;;;;5053501;28;20482;-77
2023/03/16 07:11:32;;;;;;;4.63;2.40;;;4.20;99.90;;;;;;5052867;28;20474;-68
2023/03/16 07:13:58;;;;;;;4.72;2.50;;;4.20;99.90;;;;;;5064180;28;20049;-68
2023/03/16 07:16:24;;;;;;;3.17;2.13;;;4.20;99.90;;;;;;5061206;28;20036;-68
2023/03/16 07:18:51;;;;;;;3.28;2.28;;;4.20;99.90;;;;;;5056345;28;20056;-68
2023/03/16 07:21:17;;;;;;;4.80;2.60;;;4.30;99.90;;;;;;5051148;28;20106;-68
2023/03/16 07:23:43;;;;;;;4.95;2.25;;;4.30;99.90;;;;;;5052341;28;20063;-68
2023/03/16 07:26:10;;;;;;;3.58;2.17;;;4.40;99.90;;;;;;5068900;28;20040;-68
2023/03/16 07:28:37;;;;;;;3.85;2.50;;;4.40;99.90;;;;;;5072217;28;20594;-68
2023/03/16 07:31:04;;;;;;;4.47;2.20;;;4.30;99.90;;;;;;5061717;28;20183;-68
2023/03/16 07:33:32;;;;;;;5.30;2.80;;;4.30;99.90;;;;;;5048237;28;20048;-68
2023/03/16 07:35:58;;;;;;;5.20;2.40;;;4.30;99.90;;;;;;5054989;28;20055;-68
2023/03/16 07:38:23;;;;;;;3.45;2.25;;;4.40;99.90;;;;;;5061182;28;20072;-68
2023/03/16 07:40:51;;;;;;;4.60;2.65;;;4.30;99.90;;;;;;5052645;28;20083;-68
2023/03/16 07:43:17;;;;;;;5.38;2.88;;;4.40;99.90;;;;;;5052061;28;20693;-68
2023/03/16 07:45:50;;;;;;;4.20;2.55;;;4.40;99.90;;;;;;5052640;28;20055;-69
2023/03/16 07:48:17;;;;;;;3.88;2.42;;;4.50;99.90;;;;;;5019119;28;20057;-68
2023/03/16 07:50:45;;;;;;;5.70;2.40;;;4.50;99.90;;;;;;5031568;28;20082;-68
2023/03/16 07:53:11;;;;;;;3.58;2.55;;;4.50;99.90;;;;;;5034445;28;20044;-68
2023/03/16 07:55:37;;;;;;;4.90;2.40;;;4.50;99.90;;;;;;5052282;28;20521;-66
2023/03/16 07:58:04;;;;;;;4.05;2.33;;;4.70;99.90;;;;;;5034743;28;20064;-65
2023/03/16 08:00:31;;;;;;;3.30;2.20;;;4.70;99.90;;;;;;5052001;28;20497;-66
2023/03/16 08:02:57;;;;;;;5.40;2.28;;;4.70;99.90;;;;;;5049484;28;20386;-73
2023/03/16 08:05:23;;;;;;;4.50;2.35;;;4.70;99.90;;;;;;5027524;28;20489;-74
2023/03/16 08:07:49;;;;;;;4.20;2.33;;;4.80;99.90;;;;;;5044452;28;20064;-75
2023/03/16 08:10:15;;;;;;;5.93;2.55;;;4.80;99.90;;;;;;5048404;28;20036;-77
2023/03/16 08:12:41;;;;;;;4.97;2.70;;;4.80;99.90;;;;;;5055037;28;20044;-76
2023/03/16 08:15:07;;;;;;;5.47;2.45;;;4.80;99.90;;;;;;5036984;28;20378;-77
2023/03/16 08:17:33;;;;;;;4.03;2.28;;;4.90;99.90;;;;;;5059080;28;20037;-74
2023/03/16 08:19:59;;;;;;;4.28;2.47;;;5.10;99.90;;;;;;5070638;28;20382;-75
2023/03/16 08:22:25;;;;;;;4.90;2.75;;;4.90;99.90;;;;;;5053940;28;20431;-76
2023/03/16 08:24:51;;;;;;;4.93;2.28;;;4.90;99.90;;;;;;5051025;28;20056;-82
2023/03/16 08:27:18;;;;;;;3.88;2.78;;;5.00;99.90;;;;;;5033395;28;20417;-75
2023/03/16 08:29:44;;;;;;;4.68;2.65;;;5.00;99.90;;;;;;5033106;28;20076;-74
2023/03/16 08:32:11;;;;;;;4.00;2.35;;;5.00;99.90;;;;;;5037815;28;20084;-74
2023/03/16 08:34:38;;;;;;;3.70;2.65;;;5.10;99.90;;;;;;5027389;28;20136;-74
2023/03/16 08:37:05;;;;;;;4.30;2.85;;;5.20;99.90;;;;;;5039880;28;20052;-75
2023/03/16 08:39:32;;;;;;;4.20;2.55;;;5.20;99.90;;;;;;5051186;28;20103;-75
2023/03/16 08:41:58;;;;;;;4.25;2.40;;;5.20;99.90;;;;;;5032669;28;20374;-75
2023/03/16 08:44:25;;;;;;;4.43;2.60;;;5.30;99.90;;;;;;5051227;28;20067;-75
2023/03/16 08:46:51;;;;;;;5.05;2.22;;;5.30;99.90;;;;;;5050562;28;20107;-74
2023/03/16 08:49:19;;;;;;;4.55;2.45;;;5.40;99.90;;;;;;5031307;28;20065;-75
2023/03/16 08:51:45;;;;;;;4.15;2.65;;;5.30;99.90;;;;;;5016976;28;20111;-74
2023/03/16 08:54:11;;;;;;;3.25;2.30;;;5.40;99.90;;;;;;5050722;28;20481;-74
2023/03/16 08:56:37;;;;;;;3.33;2.25;;;5.40;99.90;;;;;;5050744;28;20053;-75
2023/03/16 08:59:02;;;;;;;7.82;4.18;;;5.40;99.90;;;;;;5036048;28;20049;-75
2023/03/16 09:01:28;;;;;;;4.65;2.55;;;5.40;99.90;;;;;;5032515;28;20063;-77
2023/03/16 09:03:54;;;;;;;4.95;3.20;;;5.40;99.90;;;;;;5033153;28;20059;-75
2023/03/16 09:06:21;;;;;;;4.65;2.58;;;5.40;99.90;;;;;;5032687;28;20048;-75
2023/03/16 09:08:47;;;;;;;4.93;2.63;;;5.40;99.90;;;;;;5050577;28;20764;-75
2023/03/16 09:11:15;;;;;;;5.30;2.67;;;5.40;99.90;;;;;;5050402;28;20076;-76
2023/03/16 09:13:42;;;;;;;4.95;2.63;;;5.50;99.90;;;;;;5032815;28;20048;-76
2023/03/16 09:16:10;;;;;;;5.40;3.30;;;5.50;99.90;;;;;;5032752;28;20083;-76
2023/03/16 09:18:37;;;;;;;4.88;2.53;;;5.50;99.90;;;;;;5032115;28;20124;-76
2023/03/16 09:21:06;;;;;;;4.13;2.60;;;5.50;99.90;;;;;;5050274;28;20106;-76
2023/03/16 09:23:33;;;;;;;5.78;2.70;;;5.50;99.90;;;;;;5032937;28;20049;-76
2023/03/16 09:26:00;;;;;;;5.05;2.70;;;5.50;99.90;;;;;;5016140;28;20147;-76
2023/03/16 09:28:28;;;;;;;4.57;2.80;;;5.50;99.90;;;;;;5034225;28;20048;-77
2023/03/16 09:30:55;;;;;;;4.25;2.60;;;5.50;99.90;;;;;;5049626;28;20041;-77
2023/03/16 09:33:21;;;;;;;6.18;3.05;;;5.60;99.90;;;;;;5016149;28;20060;-78
2023/03/16 09:35:48;;;;;;;3.40;2.53;;;5.60;99.90;;;;;;5032493;28;20091;-77
2023/03/16 09:38:14;;;;;;;4.65;2.97;;;5.60;99.90;;;;;;5052923;28;20057;-77
2023/03/16 09:40:40;;;;;;;4.65;2.70;;;5.60;99.90;;;;;;5035858;28;20139;-76
2023/03/16 09:43:09;;;;;;;4.53;3.25;;;5.60;99.90;;;;;;5034651;28;20075;-76
2023/03/16 09:45:45;;;;;;;4.38;2.92;;;5.60;99.90;;;;;;5033709;28;20066;-76
2023/03/16 09:48:11;;;;;;;;;;;5.70;99.90;;;;;;5034369;28;20531;-78
2023/03/16 09:50:40;;;;;;;4.90;3.05;;;5.80;99.90;;;;;;5035717;28;20119;-77
2023/03/16 09:53:28;;;;;;;4.70;3.13;;;5.80;99.90;;;;;;5020164;28;20051;-78
2023/03/16 09:56:08;;;;;;;5.07;3.17;;;5.80;99.90;;;;;;5036211;28;20136;-77
2023/03/16 09:58:35;;;;;;;6.13;3.20;;;5.90;99.90;;;;;;5031572;28;20064;-77
2023/03/16 10:01:15;;;;;;;5.68;3.22;;;6.00;99.90;;;;;;5007108;28;20052;-76
2023/03/16 10:04:06;;;;;;;7.25;3.60;;;6.00;99.90;;;;;;5053811;28;20663;-76
2023/03/16 10:06:32;;;;;;;5.47;3.00;;;6.10;99.90;;;;;;5036315;28;20049;-76
2023/03/16 10:09:16;;;;;;;5.30;3.25;;;6.10;99.90;;;;;;5035817;28;20045;-76
2023/03/16 10:11:47;;;;;;;5.85;2.83;;;6.10;99.90;;;;;;5036201;28;20393;-75
2023/03/16 10:14:17;;;;;;;3.58;2.70;;;6.10;99.90;;;;;;5053912;28;20084;-75
2023/03/16 10:16:51;;;;;;;6.82;3.38;;;6.10;99.90;;;;;;5035620;28;20456;-76
2023/03/16 10:19:39;;;;;;;5.45;3.20;;;6.10;99.90;;;;;;5053537;28;20143;-76
2023/03/16 10:22:28;;;;;;;6.90;3.65;;;6.10;99.90;;;;;;5035274;28;20071;-75
2023/03/16 10:25:07;;;;;;;5.43;3.15;;;6.10;99.90;;;;;;5063597;28;20099;-75
2023/03/16 10:27:37;;;;;;;6.35;3.40;;;6.10;99.90;;;;;;5053773;28;20049;-76
2023/03/16 10:30:18;;;;;;;5.18;3.08;;;6.00;99.90;;;;;;5035257;28;20077;-76
2023/03/16 10:32:45;;;;;;;5.97;3.58;;;6.00;99.90;;;;;;5052909;28;20053;-77
2023/03/16 10:35:38;;;;;;;4.22;2.97;;;6.00;99.90;;;;;;5035854;28;20049;-77
2023/03/16 10:38:06;;;;;;;5.35;3.60;;;6.00;99.90;;;;;;5035621;28;20094;-76
2023/03/16 10:40:37;;;;;;;4.72;3.25;;;6.10;99.90;;;;;;5035496;28;20044;-79
2023/03/16 10:43:16;;;;;;;5.20;3.25;;;6.10;99.90;;;;;;5019250;28;20056;-76
2023/03/16 10:45:42;;;;;;;4.80;3.40;;;6.10;99.90;;;;;;5050308;28;20056;-74
2023/03/16 10:48:14;;;;;;;4.75;2.80;;;6.20;99.90;;;;;;5033760;28;20456;-82
2023/03/16 10:50:43;;;;;;;6.32;3.25;;;6.20;99.90;;;;;;5035060;28;20064;-74
2023/03/16 10:53:27;;;;;;;5.25;3.25;;;6.20;99.90;;;;;;5053303;28;20128;-76
2023/03/16 10:55:58;;;;;;;5.10;3.10;;;6.30;99.90;;;;;;5051224;28;20071;-77
2023/03/16 10:58:28;;;;;;;5.18;2.92;;;6.20;99.90;;;;;;5052776;28;20041;-79
2023/03/16 11:00:54;;;;;;;5.10;3.05;;;6.20;99.90;;;;;;5051475;28;20045;-76
2023/03/16 11:03:37;;;;;;;4.32;2.60;;;6.20;99.90;;;;;;5033057;28;20106;-74
2023/03/16 11:06:16;;;;;;;4.80;2.92;;;6.20;99.90;;;;;;5049965;28;20080;-74
2023/03/16 11:08:44;;;;;;;4.55;2.80;;;6.30;99.90;;;;;;5033140;28;20040;-75
2023/03/16 11:11:13;;;;;;;4.43;2.90;;;6.30;99.90;;;;;;5034861;28;20505;-74
2023/03/16 11:13:44;;;;;;;4.90;2.75;;;6.30;99.90;;;;;;5034647;28;20520;-74
2023/03/16 11:16:29;;;;;;;4.63;2.80;;;6.30;99.90;;;;;;5051957;28;20056;-74
2023/03/16 11:19:03;;;;;;;4.63;2.97;;;6.40;99.90;;;;;;5034634;28;20045;-77
2023/03/16 11:21:53;;;;;;;4.82;2.80;;;6.40;99.90;;;;;;5052872;28;20048;-75
2023/03/16 11:24:43;;;;;;;5.18;2.97;;;6.40;99.90;;;;;;5034583;28;20083;-77
2023/03/16 11:27:39;;;;;;;5.00;2.78;;;6.40;99.90;;;;;;5040555;28;20140;-77
2023/03/16 11:30:08;;;;;;;4.32;2.85;;;6.50;99.90;;;;;;5044674;28;20479;-80
2023/03/16 11:32:37;;;;;;;7.25;3.38;;;6.50;99.90;;;;;;5033959;28;20176;-80
2023/03/16 11:35:18;;;;;;;5.53;3.22;;;6.40;99.90;;;;;;5052514;28;20060;-79
2023/03/16 11:37:50;;;;;;;4.95;3.08;;;6.40;99.90;;;;;;5051559;28;20493;-78
2023/03/16 11:40:46;;;;;;;4.40;2.65;;;6.50;99.90;;;;;;5052017;28;20045;-80
2023/03/16 11:43:39;;;;;;;5.03;2.90;;;6.50;99.90;;;;;;5051889;28;20557;-77
2023/03/16 11:46:08;;;;;;;5.10;2.95;;;6.60;99.90;;;;;;5051123;28;20377;-75
2023/03/16 11:48:55;;;;;;;5.90;2.65;;;6.60;99.90;;;;;;5033387;28;20049;-75
2023/03/16 11:51:42;;;;;;;5.32;3.08;;;6.60;99.90;;;;;;5048193;28;20110;-76
2023/03/16 11:54:40;;;;;;;5.50;3.08;;;6.70;99.90;;;;;;5034220;28;20049;-75
2023/03/16 11:57:43;;;;;;;6.07;3.33;;;6.80;99.90;;;;;;5052045;28;20059;-75
2023/03/16 12:00:23;;;;;;;5.05;2.78;;;6.90;99.90;;;;;;5032198;28;20079;-74
2023/03/16 12:03:13;;;;;;;4.63;2.80;;;7.00;99.90;;;;;;5034250;28;20124;-75
2023/03/16 12:05:54;;;;;;;6.93;3.13;;;6.80;99.90;;;;;;5038859;28;20045;-76
2023/03/16 12:08:56;;;;;;;4.22;2.50;;;7.10;99.90;;;;;;5037598;28;20053;-75
2023/03/16 12:11:41;;;;;;;5.88;2.60;;;7.10;99.90;;;;;;4970174;28;20050;-76
2023/03/16 12:14:42;;;;;;;5.78;2.63;;;7.20;99.90;;;;;;5029551;28;20065;-77
2023/03/16 12:17:24;;;;;;;4.43;2.40;;;7.20;99.90;;;;;;5041326;28;20402;-75
2023/03/16 12:19:52;;;;;;;4.75;2.70;;;7.30;99.90;;;;;;5033551;28;20576;-76
2023/03/16 12:22:33;;;;;;;5.78;2.53;;;7.40;99.90;;;;;;5050920;28;20045;-75
2023/03/16 12:25:00;;;;;;;4.38;2.72;;;7.40;99.90;;;;;;5051436;28;20071;-76
2023/03/16 12:27:30;;;;;;;3.17;2.10;;;7.60;99.90;;;;;;5042485;28;20568;-75
2023/03/16 12:30:19;;;;;;;4.20;2.40;;;7.90;99.90;;;;;;5033455;28;20048;-77
2023/03/16 12:32:54;;;;;;;4.00;2.50;;;8.10;99.90;;;;;;5031605;28;20044;-77
2023/03/16 12:35:35;;;;;;;4.80;2.47;;;8.20;99.90;;;;;;5051230;28;20045;-76
2023/03/16 12:38:32;;;;;;;3.90;2.50;;;8.30;99.90;;;;;;5051229;28;20053;-80
2023/03/16 12:41:30;;;;;;;3.97;2.35;;;8.50;99.90;;;;;;5016865;28;20052;-76
2023/03/16 12:44:30;;;;;;;4.18;2.40;;;8.60;99.90;;;;;;5041487;28;20548;-76
2023/03/16 12:47:02;;;;;;;4.43;2.35;;;8.50;99.90;;;;;;5025878;28;20052;-77
2023/03/16 12:49:33;;;;;;;3.60;2.25;;;8.50;99.90;;;;;;5032240;28;20421;-76
2023/03/16 12:52:01;;;;;;;3.70;2.33;;;8.50;99.90;;;;;;5049990;28;20040;-77
2023/03/16 12:54:27;;;;;;;3.67;2.22;;;8.60;99.90;;;;;;5050880;28;20099;-77
2023/03/16 12:57:01;;;;;;;4.28;2.42;;;8.70;99.90;;;;;;5049817;28;20506;-77
2023/03/16 12:59:42;;;;;;;3.92;2.50;;;8.70;99.90;;;;;;5051306;28;20174;-76
2023/03/16 13:02:15;;;;;;;3.63;2.22;;;8.80;99.90;;;;;;5050679;28;20103;-75
2023/03/16 13:04:43;;;;;;;3.33;2.17;;;8.80;99.90;;;;;;5033050;28;20041;-76
2023/03/16 13:07:24;;;;;;;3.42;2.30;;;8.70;99.90;;;;;;5050661;28;20124;-76
2023/03/16 13:10:07;;;;;;;4.15;2.72;;;8.70;99.90;;;;;;5016561;28;20057;-76
2023/03/16 13:12:38;;;;;;;4.85;2.40;;;8.70;99.90;;;;;;5033150;28;20081;-76
2023/03/16 13:15:28;;;;;;;5.32;2.63;;;8.70;99.90;;;;;;5050270;28;20064;-75